Terminal Aerodrome Forecast
Issued by NWS Bismarck, ND

Home | Current Version | Previous Version | Text Only | Print | Product List | Glossary On
Versions: 1 2 3 4 5 6 7 8 9 10 11 12 13 14 15 16 17 18 19 20 21 22 23 24 25 26 27
000
FTUS43 KBIS 300500
TAFBIS
TAF
KBIS 300536Z 3006/3106 VRB03KT P6SM SKC
     FM300700 14003KT 3SM BR SKC
     FM301500 15010KT P6SM SKC
     FM310000 14011KT P6SM VCTS SCT050CB=

USA.gov is the U.S. government's official web portal to all federal, state and local government web resources and services.